Time;durP1;ratioP1;P1;durP2;ratioP2;P2;SDS_P1;SDS_P2;PMS_P1;PMS_P2;Temp;Humidity;BMP_temperature;BMP_pressure;BME280_temperature;BME280_humidity;BME280_pressure;Samples;Min_cycle;Max_cycle;Signal;HPM_P1;HPM_P2
2022/01/07 00:00:53;;;;;;;6.80;3.03;;;;;;;-1.58;78.38;100620.66;5094642;28;20531;-56
2022/01/07 00:03:18;;;;;;;3.80;1.60;;;;;;;-1.65;78.88;100608.41;5092923;28;20028;-56
2022/01/07 00:05:44;;;;;;;3.00;1.48;;;;;;;-1.69;79.04;100618.56;5093672;28;20399;-56
2022/01/07 00:08:09;;;;;;;2.85;1.10;;;;;;;-1.73;79.25;100610.75;5095185;28;20047;-56
2022/01/07 00:10:35;;;;;;;4.15;1.90;;;;;;;-1.73;79.52;100610.75;5086030;28;20032;-56
2022/01/07 00:13:01;;;;;;;6.35;2.63;;;;;;;-1.71;79.26;100607.38;5093492;28;20035;-57
2022/01/07 00:15:27;;;;;;;7.18;3.35;;;;;;;-1.75;79.63;100609.84;5094601;28;20035;-57
2022/01/07 00:17:52;;;;;;;6.43;3.30;;;;;;;-1.76;79.90;100610.63;5091000;28;20452;-56
2022/01/07 00:20:18;;;;;;;6.60;2.80;;;;;;;-1.77;79.97;100601.16;5086233;28;20123;-56
2022/01/07 00:22:46;;;;;;;9.95;4.55;;;;;;;-1.78;79.96;100601.13;5094213;28;20459;-56
2022/01/07 00:25:12;;;;;;;4.88;1.80;;;;;;;-1.82;80.38;100596.72;5092137;28;20086;-57
2022/01/07 00:27:38;;;;;;;14.90;7.20;;;;;;;-1.86;80.83;100600.88;5094457;28;20028;-56
2022/01/07 00:30:06;;;;;;;16.40;7.60;;;;;;;-1.81;80.50;100604.47;5094420;28;20536;-56
2022/01/07 00:32:32;;;;;;;11.02;5.30;;;;;;;-1.86;80.96;100592.28;5088747;28;20530;-56
2022/01/07 00:34:57;;;;;;;4.97;2.33;;;;;;;-1.82;80.86;100594.13;5093010;28;20131;-56
2022/01/07 00:37:23;;;;;;;4.75;2.30;;;;;;;-1.81;80.82;100596.75;5094305;28;20032;-57
2022/01/07 00:39:49;;;;;;;4.13;1.60;;;;;;;-1.86;80.98;100590.59;5088808;28;20380;-56
2022/01/07 00:42:15;;;;;;;4.70;1.30;;;;;;;-1.84;80.86;100586.34;5092839;28;20032;-57
2022/01/07 00:44:40;;;;;;;10.13;4.10;;;;;;;-1.82;80.83;100596.72;5094269;28;20408;-55
2022/01/07 00:47:06;;;;;;;7.38;3.55;;;;;;;-1.84;80.93;100594.06;5089486;28;20439;-56
2022/01/07 00:49:32;;;;;;;6.88;2.70;;;;;;;-1.81;81.39;100593.28;5093899;28;20035;-57
2022/01/07 00:51:59;;;;;;;15.93;8.25;;;;;;;-1.77;80.76;100596.00;5077447;28;20036;-56
2022/01/07 00:54:25;;;;;;;18.83;8.55;;;;;;;-1.78;81.13;100594.28;5088850;28;20042;-56
2022/01/07 00:56:50;;;;;;;16.88;7.32;;;;;;;-1.84;81.53;100590.63;5094095;28;20036;-57
2022/01/07 00:59:16;;;;;;;12.85;6.30;;;;;;;-1.80;81.49;100597.63;5093141;28;20506;-58
2022/01/07 01:01:41;;;;;;;5.22;2.40;;;;;;;-1.76;81.67;100599.47;5093427;28;20027;-56
2022/01/07 01:04:06;;;;;;;28.45;13.25;;;;;;;-1.78;81.52;100602.00;5093698;28;20028;-57
2022/01/07 01:06:34;;;;;;;16.95;7.75;;;;;;;-1.81;81.82;100601.91;5093086;28;20471;-55
2022/01/07 01:08:59;;;;;;;12.88;7.03;;;;;;;-1.78;81.66;100595.97;5093589;28;20421;-57
2022/01/07 01:11:25;;;;;;;13.57;6.47;;;;;;;-1.81;81.82;100599.31;5093769;28;20040;-57
2022/01/07 01:13:50;;;;;;;9.48;4.18;;;;;;;-1.79;82.13;100601.97;5092686;28;20364;-55
2022/01/07 01:16:15;;;;;;;13.40;6.70;;;;;;;-1.76;82.13;100609.75;5092299;28;20070;-56
2022/01/07 01:18:41;;;;;;;26.92;14.25;;;;;;;-1.67;81.38;100606.63;5092268;28;20064;-56
2022/01/07 01:21:06;;;;;;;19.45;9.48;;;;;;;-1.77;81.47;100596.00;5089783;28;20036;-56
2022/01/07 01:23:32;;;;;;;13.38;4.70;;;;;;;-1.82;81.61;100604.44;5093732;28;20047;-56
2022/01/07 01:25:58;;;;;;;23.92;11.65;;;;;;;-1.76;81.16;100607.19;5092079;28;20459;-56
2022/01/07 01:28:23;;;;;;;17.52;9.68;;;;;;;-1.81;81.73;100601.91;5077824;28;20028;-56
2022/01/07 01:30:49;;;;;;;20.67;9.95;;;;;;;-1.84;81.42;100594.06;5080621;28;20036;-56
2022/01/07 01:33:14;;;;;;;6.35;3.17;;;;;;;-1.80;81.63;100601.06;5090496;28;21248;-57
2022/01/07 01:35:40;;;;;;;11.60;4.40;;;;;;;-1.78;81.12;100595.97;5072302;28;20048;-57
2022/01/07 01:38:06;;;;;;;22.30;6.13;;;;;;;-1.77;80.78;100590.00;5082489;28;20115;-57
2022/01/07 01:40:31;;;;;;;6.22;2.55;;;;;;;-1.74;80.72;100593.53;5091439;28;20031;-56
2022/01/07 01:42:57;;;;;;;24.38;11.68;;;;;;;-1.70;80.54;100593.66;5092210;28;20389;-57
2022/01/07 01:45:24;;;;;;;11.00;5.20;;;;;;;-1.71;80.26;100591.91;5093640;28;20028;-57
2022/01/07 01:47:50;;;;;;;29.42;15.57;;;;;;;-1.75;80.10;100586.66;5091756;28;20497;-56
2022/01/07 01:50:16;;;;;;;8.70;4.30;;;;;;;-1.74;79.97;100590.97;5092491;28;20434;-58
2022/01/07 01:52:52;;;;;;;6.03;2.53;;;;;;;-1.76;79.89;100590.03;5093453;28;20036;-55
2022/01/07 01:55:18;;;;;;;4.20;1.70;;;;;;;-1.80;80.00;100583.03;5083850;28;20119;-55
2022/01/07 01:57:44;;;;;;;16.02;7.50;;;;;;;-1.81;79.89;100581.28;5093557;28;20501;-57
2022/01/07 02:00:11;;;;;;;10.90;4.10;;;;;;;-1.79;79.62;100594.25;5074620;28;20550;-56
2022/01/07 02:02:37;;;;;;;13.55;5.97;;;;;;;-1.83;79.63;100582.09;5073903;28;20048;-57
2022/01/07 02:05:04;;;;;;;10.82;5.05;;;;;;;-1.80;79.34;100598.47;5094640;28;20036;-56
2022/01/07 02:07:32;;;;;;;14.40;7.20;;;;;;;-1.76;78.56;100582.31;5087458;28;20064;-57
2022/01/07 02:09:57;;;;;;;10.65;5.40;;;;;;;-1.77;78.84;100574.53;5076618;28;20033;-56
2022/01/07 02:12:23;;;;;;;18.38;10.75;;;;;;;-1.83;78.69;100576.94;5076612;28;20037;-56
2022/01/07 02:14:55;;;;;;;11.60;6.45;;;;;;;-1.91;79.06;100573.25;5076038;28;20036;-56
2022/01/07 02:17:25;;;;;;;5.10;2.30;;;;;;;-1.91;78.80;100576.69;5076578;28;20055;-56
2022/01/07 02:19:51;;;;;;;7.20;3.38;;;;;;;-1.94;79.23;100586.88;5077800;28;20135;-55
2022/01/07 02:22:17;;;;;;;13.35;7.45;;;;;;;-1.99;79.34;100578.16;5096389;28;20028;-56
2022/01/07 02:24:47;;;;;;;13.35;6.18;;;;;;;-2.00;79.18;100574.66;5093535;28;20131;-56
2022/01/07 02:27:14;;;;;;;11.65;6.78;;;;;;;-1.99;79.49;100562.69;5083176;28;20045;-56
2022/01/07 02:29:41;;;;;;;10.95;6.32;;;;;;;-2.01;79.45;100565.22;5076583;28;20048;-55
2022/01/07 02:32:07;;;;;;;10.90;6.13;;;;;;;-2.01;79.64;100574.63;5075475;28;20048;-55
2022/01/07 02:34:32;;;;;;;10.23;5.93;;;;;;;-2.04;79.70;100582.25;5089158;28;20048;-56
2022/01/07 02:36:58;;;;;;;7.30;4.13;;;;;;;-2.03;79.59;100568.59;5096522;28;20471;-56
2022/01/07 02:39:24;;;;;;;8.52;3.65;;;;;;;-2.07;79.39;100577.03;5095100;28;20036;-56
2022/01/07 02:41:49;;;;;;;10.88;5.50;;;;;;;-2.02;79.15;100575.47;5095371;28;20395;-58
2022/01/07 02:44:15;;;;;;;16.80;9.23;;;;;;;-2.10;79.79;100571.78;5076562;28;20388;-55
2022/01/07 02:46:41;;;;;;;9.90;6.05;;;;;;;-2.04;79.06;100572.81;5091100;28;20113;-56
2022/01/07 02:49:11;;;;;;;10.85;5.47;;;;;;;-2.04;79.07;100577.09;5095107;28;20495;-56
2022/01/07 02:51:37;;;;;;;8.48;4.70;;;;;;;-2.15;79.49;100578.47;5094571;28;20051;-59
2022/01/07 02:54:03;;;;;;;15.00;6.35;;;;;;;-2.21;79.76;100576.56;5094911;28;20028;-55
2022/01/07 02:56:28;;;;;;;10.10;4.78;;;;;;;-2.32;79.86;100573.63;5095971;28;20032;-57
2022/01/07 02:58:54;;;;;;;9.82;4.18;;;;;;;-2.24;79.59;100573.88;5091349;28;20361;-57
2022/01/07 03:01:19;;;;;;;6.50;2.55;;;;;;;-2.23;79.22;100575.66;5075820;28;20507;-56
2022/01/07 03:03:45;;;;;;;4.60;2.47;;;;;;;-2.20;78.94;100574.84;5075928;28;20032;-55
2022/01/07 03:06:10;;;;;;;5.68;2.35;;;;;;;-2.20;79.26;100570.59;5082391;28;20066;-57
2022/01/07 03:08:36;;;;;;;7.60;4.20;;;;;;;-2.32;79.24;100565.03;5096085;28;20036;-55
2022/01/07 03:11:01;;;;;;;10.75;6.15;;;;;;;-2.24;79.17;100563.59;5094932;28;20542;-56
2022/01/07 03:13:28;;;;;;;6.45;4.30;;;;;;;-2.30;78.93;100558.25;5086324;28;20059;-56
2022/01/07 03:15:54;;;;;;;13.15;3.80;;;;;;;-2.22;78.92;100558.50;5075244;28;20438;-55
2022/01/07 03:18:21;;;;;;;6.70;3.88;;;;;;;-2.29;78.87;100550.56;5076281;28;20029;-56
2022/01/07 03:20:46;;;;;;;5.13;2.83;;;;;;;-2.24;78.89;100551.59;5095685;28;20068;-56
2022/01/07 03:23:13;;;;;;;8.60;4.07;;;;;;;-2.31;79.00;100541.06;5086098;28;20546;-55
2022/01/07 03:25:44;;;;;;;7.38;3.50;;;;;;;-2.32;79.16;100534.16;5092138;28;20449;-56
2022/01/07 03:28:10;;;;;;;7.68;3.60;;;;;;;-2.29;79.09;100529.97;5090414;28;20115;-56
2022/01/07 03:30:36;;;;;;;8.70;4.10;;;;;;;-2.28;79.16;100526.56;5086016;28;20123;-54
2022/01/07 03:33:02;;;;;;;8.77;3.60;;;;;;;-2.27;78.81;100538.63;5074490;28;20051;-56
2022/01/07 03:35:28;;;;;;;6.32;2.97;;;;;;;-2.30;78.46;100525.66;5075153;28;20369;-55
2022/01/07 03:37:53;;;;;;;7.35;2.70;;;;;;;-2.30;78.71;100540.22;5074878;28;20081;-55
2022/01/07 03:40:20;;;;;;;5.50;2.10;;;;;;;-2.24;78.19;100543.84;5085235;28;20072;-54
2022/01/07 03:42:46;;;;;;;6.10;2.13;;;;;;;-2.27;78.28;100548.94;5095032;28;20454;-54
2022/01/07 03:45:13;;;;;;;3.80;2.08;;;;;;;-2.32;78.37;100545.31;5094383;28;20040;-55
2022/01/07 03:47:39;;;;;;;7.40;2.25;;;;;;;-2.23;78.13;100549.91;5095292;28;20542;-55
2022/01/07 03:50:08;;;;;;;5.60;2.72;;;;;;;-2.24;78.00;100531.00;5085323;28;20037;-57
2022/01/07 03:52:34;;;;;;;5.47;2.80;;;;;;;-2.25;78.00;100536.97;5081082;28;20126;-55
2022/01/07 03:54:59;;;;;;;9.23;4.07;;;;;;;-2.25;77.98;100526.69;5072999;28;20032;-56
2022/01/07 03:57:25;;;;;;;7.38;4.05;;;;;;;-2.24;78.25;100533.56;5073390;28;20033;-56
2022/01/07 03:59:50;;;;;;;9.73;5.32;;;;;;;-2.32;78.01;100535.03;5074743;28;20115;-56
2022/01/07 04:02:17;;;;;;;7.60;3.90;;;;;;;-2.34;78.53;100526.38;5084505;28;20032;-57
2022/01/07 04:04:42;;;;;;;10.25;4.50;;;;;;;-2.29;78.45;100522.25;5093935;28;20041;-55
2022/01/07 04:07:08;;;;;;;7.05;3.50;;;;;;;-2.31;78.50;100523.06;5094489;28;20035;-57
2022/01/07 04:09:33;;;;;;;7.05;3.90;;;;;;;-2.25;78.16;100529.25;5093933;28;20066;-56
2022/01/07 04:12:00;;;;;;;6.82;2.53;;;;;;;-2.24;78.05;100522.41;5094761;28;20059;-55
2022/01/07 04:14:25;;;;;;;7.28;2.83;;;;;;;-2.25;77.98;100518.94;5094700;28;20387;-54
2022/01/07 04:16:51;;;;;;;7.68;3.83;;;;;;;-2.27;78.11;100517.19;5082066;28;20036;-56
2022/01/07 04:19:17;;;;;;;11.15;4.38;;;;;;;-2.22;77.96;100519.88;5077888;28;20123;-55
2022/01/07 04:21:42;;;;;;;8.05;3.35;;;;;;;-2.29;78.41;100521.38;5093278;28;20081;-55
2022/01/07 04:24:08;;;;;;;9.40;4.53;;;;;;;-2.27;78.38;100528.34;5094067;28;20032;-56
2022/01/07 04:26:33;;;;;;;5.35;2.72;;;;;;;-2.29;78.23;100529.97;5093075;28;20040;-58
2022/01/07 04:28:58;;;;;;;8.88;3.80;;;;;;;-2.30;78.38;100528.25;5093680;28;20043;-57
2022/01/07 04:31:24;;;;;;;10.40;4.40;;;;;;;-2.29;78.60;100537.69;5091592;28;20055;-56
2022/01/07 04:33:50;;;;;;;6.40;3.45;;;;;;;-2.33;79.01;100520.41;5089493;28;20059;-57
2022/01/07 04:36:17;;;;;;;7.78;2.97;;;;;;;-2.37;78.98;100526.28;5074082;28;20065;-59
2022/01/07 04:38:46;;;;;;;8.95;3.67;;;;;;;-2.34;78.98;100521.25;5076102;28;20033;-55
2022/01/07 04:41:12;;;;;;;9.40;4.05;;;;;;;-2.32;79.28;100513.56;5080165;28;20032;-55
2022/01/07 04:43:37;;;;;;;7.43;3.45;;;;;;;-2.32;79.31;100517.00;5073981;28;20039;-54
2022/01/07 04:46:04;;;;;;;9.30;4.70;;;;;;;-2.48;80.54;100513.06;5075443;28;20028;-55
2022/01/07 04:48:29;;;;;;;10.50;3.83;;;;;;;-2.41;80.23;100515.84;5093945;28;20475;-57
2022/01/07 04:50:55;;;;;;;8.57;4.55;;;;;;;-2.37;80.75;100507.41;5093460;28;20058;-56
2022/01/07 04:53:21;;;;;;;10.38;5.05;;;;;;;-2.37;82.10;100512.53;5093267;28;20036;-55
2022/01/07 04:55:47;;;;;;;10.77;4.82;;;;;;;-2.31;82.39;100521.34;5093652;28;20043;-56
2022/01/07 04:58:13;;;;;;;9.82;4.35;;;;;;;-2.08;81.60;100513.47;5093044;28;20379;-56
2022/01/07 05:00:41;;;;;;;10.18;3.53;;;;;;;-2.01;82.25;100521.44;5094209;28;20075;-56
2022/01/07 05:03:06;;;;;;;9.05;4.55;;;;;;;-1.81;81.38;100516.88;5087536;28;20127;-55
2022/01/07 05:05:32;;;;;;;10.00;4.68;;;;;;;-1.72;81.62;100513.72;5081715;28;20111;-55
2022/01/07 05:07:57;;;;;;;10.10;4.57;;;;;;;-1.73;82.17;100519.69;5073622;28;20059;-56
2022/01/07 05:10:23;;;;;;;9.68;4.28;;;;;;;-1.83;83.12;100515.97;5071960;28;20033;-55
2022/01/07 05:12:49;;;;;;;8.88;4.30;;;;;;;-1.70;82.89;100514.66;5073505;28;20043;-55
2022/01/07 05:15:16;;;;;;;11.05;4.80;;;;;;;-1.61;82.36;100511.47;5081177;28;20048;-57
2022/01/07 05:17:42;;;;;;;9.82;3.83;;;;;;;-1.65;83.51;100519.94;5073613;28;20040;-56
2022/01/07 05:20:08;;;;;;;9.48;4.32;;;;;;;-1.55;82.88;100511.66;5071970;28;20181;-58
2022/01/07 05:22:34;;;;;;;7.25;4.30;;;;;;;-1.49;83.31;100506.66;5089488;28;20047;-55
2022/01/07 05:25:00;;;;;;;10.57;5.03;;;;;;;-1.61;84.75;100512.34;5093831;28;20032;-56
2022/01/07 05:27:25;;;;;;;10.35;5.28;;;;;;;-1.56;84.75;100520.19;5089010;28;20050;-55
2022/01/07 05:29:50;;;;;;;9.38;4.55;;;;;;;-1.40;84.07;100516.34;5093752;28;20032;-56
2022/01/07 05:32:16;;;;;;;9.80;4.15;;;;;;;-1.32;83.42;100510.59;5092180;28;20040;-57
2022/01/07 05:34:42;;;;;;;8.48;4.72;;;;;;;-1.24;84.06;100513.38;5092294;28;20479;-57
2022/01/07 05:37:10;;;;;;;12.00;4.90;;;;;;;-1.19;83.84;100509.25;5093383;28;20085;-55
2022/01/07 05:39:36;;;;;;;12.13;6.38;;;;;;;-1.11;84.09;100512.03;5088269;28;20114;-55
2022/01/07 05:42:02;;;;;;;9.20;5.57;;;;;;;-1.01;83.40;100508.88;5088426;28;20231;-55
2022/01/07 05:44:27;;;;;;;12.48;5.72;;;;;;;-0.90;83.21;100515.19;5093209;28;20414;-57
2022/01/07 05:46:52;;;;;;;9.32;5.10;;;;;;;-0.89;82.66;100516.94;5084079;28;20035;-55
2022/01/07 05:49:18;;;;;;;10.13;5.30;;;;;;;-0.76;82.27;100502.63;5083032;28;20024;-57
2022/01/07 05:51:43;;;;;;;10.95;4.80;;;;;;;-0.71;82.51;100502.78;5086841;28;20368;-55
2022/01/07 05:54:09;;;;;;;13.73;6.80;;;;;;;-0.64;82.10;100502.09;5097228;28;20063;-54
2022/01/07 05:56:36;;;;;;;12.50;6.00;;;;;;;-0.69;81.69;100506.25;5086136;28;20433;-55
2022/01/07 05:59:01;;;;;;;17.02;6.53;;;;;;;-0.71;82.08;100510.53;5096699;28;20437;-56
2022/01/07 06:01:27;;;;;;;10.70;6.45;;;;;;;-0.70;82.08;100507.09;5089117;28;20037;-55
2022/01/07 06:03:52;;;;;;;12.27;6.25;;;;;;;-0.55;81.40;100515.25;5077885;28;20451;-57
2022/01/07 06:06:18;;;;;;;10.95;6.05;;;;;;;-0.52;80.90;100512.72;5077237;28;20036;-55
2022/01/07 06:08:43;;;;;;;9.90;5.60;;;;;;;-0.42;80.55;100504.38;5097053;28;20387;-55
2022/01/07 06:11:09;;;;;;;10.45;5.38;;;;;;;-0.40;80.26;100510.47;5095263;28;20039;-58
2022/01/07 06:13:34;;;;;;;10.23;5.80;;;;;;;-0.47;80.19;100503.41;5090362;28;20044;-56
2022/01/07 06:16:00;;;;;;;12.85;6.75;;;;;;;-0.39;79.95;100504.47;5091899;28;20103;-55
2022/01/07 06:18:25;;;;;;;12.30;6.53;;;;;;;-0.45;80.00;100504.28;5085749;28;20040;-57
2022/01/07 06:20:51;;;;;;;13.68;7.38;;;;;;;-0.42;79.89;100514.72;5090918;28;20433;-56
2022/01/07 06:23:16;;;;;;;11.25;6.22;;;;;;;-0.28;79.48;100509.88;5095233;28;20468;-55
2022/01/07 06:25:44;;;;;;;13.40;7.28;;;;;;;-0.30;79.42;100501.22;5096914;28;20032;-56
2022/01/07 06:28:10;;;;;;;14.98;8.10;;;;;;;-0.34;79.49;100496.81;5092984;28;20040;-56
2022/01/07 06:30:35;;;;;;;13.23;6.85;;;;;;;-0.25;79.29;100500.50;5077841;28;20032;-57
2022/01/07 06:33:00;;;;;;;14.05;6.88;;;;;;;-0.17;79.08;100502.38;5089335;28;20032;-55
2022/01/07 06:35:26;;;;;;;12.32;6.18;;;;;;;-0.11;79.06;100494.78;5084856;28;20048;-57
2022/01/07 06:37:51;;;;;;;13.75;6.47;;;;;;;-0.14;79.23;100507.63;5085655;28;20039;-56
2022/01/07 06:40:17;;;;;;;14.70;7.53;;;;;;;-0.09;78.96;100506.88;5093110;28;20039;-54
2022/01/07 06:42:42;;;;;;;13.40;7.93;;;;;;;-0.08;79.12;100505.19;5095267;28;20028;-56
2022/01/07 06:45:08;;;;;;;12.48;7.22;;;;;;;-0.02;78.79;100505.34;5095249;28;20119;-56
2022/01/07 06:47:34;;;;;;;10.07;6.00;;;;;;;-0.04;79.07;100491.50;5095322;28;20062;-56
2022/01/07 06:49:59;;;;;;;14.50;7.50;;;;;;;0.06;79.06;100505.50;5094487;28;20044;-56
2022/01/07 06:52:25;;;;;;;11.88;6.35;;;;;;;-0.04;79.05;100486.31;5093431;28;20470;-56
2022/01/07 06:54:50;;;;;;;13.60;7.78;;;;;;;-0.09;79.50;100483.63;5095167;28;20028;-57
2022/01/07 06:57:16;;;;;;;16.73;8.32;;;;;;;-0.10;79.29;100488.78;5094946;28;20047;-57
2022/01/07 06:59:41;;;;;;;13.43;6.82;;;;;;;-0.12;79.73;100504.25;5094791;28;20028;-57
2022/01/07 07:02:07;;;;;;;11.43;6.85;;;;;;;-0.02;79.30;100493.28;5094698;28;20035;-57
2022/01/07 07:04:32;;;;;;;12.20;6.30;;;;;;;0.06;79.00;100490.88;5094629;28;20024;-56
2022/01/07 07:06:58;;;;;;;12.30;7.53;;;;;;;-0.10;79.27;100487.06;5094284;28;20043;-56
2022/01/07 07:09:24;;;;;;;11.50;6.45;;;;;;;-0.05;79.09;100490.63;5093714;28;20100;-56
2022/01/07 07:11:49;;;;;;;15.98;7.70;;;;;;;0.02;78.88;100499.41;5094813;28;20496;-55
2022/01/07 07:14:15;;;;;;;12.73;7.03;;;;;;;-0.04;79.39;100491.50;5094674;28;20032;-57
2022/01/07 07:16:41;;;;;;;13.55;6.88;;;;;;;-0.08;79.60;100485.41;5094521;28;20032;-56
2022/01/07 07:19:06;;;;;;;11.43;6.40;;;;;;;-0.01;79.58;100491.56;5094430;28;20081;-56
2022/01/07 07:21:32;;;;;;;14.88;7.00;;;;;;;0.14;78.99;100504.84;5094253;28;20027;-56
2022/01/07 07:23:57;;;;;;;12.90;7.35;;;;;;;0.20;78.57;100501.50;5094774;28;20038;-55
2022/01/07 07:26:23;;;;;;;13.73;6.30;;;;;;;0.27;78.33;100505.09;5094520;28;20479;-57
2022/01/07 07:28:51;;;;;;;15.80;7.38;;;;;;;0.19;79.16;100497.19;5094285;28;20035;-55
2022/01/07 07:31:18;;;;;;;12.95;7.55;;;;;;;0.24;78.94;100500.75;5094458;28;20040;-55
2022/01/07 07:38:51;;;;;;;20.50;8.70;;;;;;;0.30;79.97;100495.72;5094147;28;20047;-52
2022/01/07 07:41:17;;;;;;;14.95;7.53;;;;;;;0.46;78.92;100499.50;5094924;28;20036;-56
2022/01/07 07:43:44;;;;;;;15.48;8.05;;;;;;;0.38;79.73;100495.88;5093856;28;20058;-55
2022/01/07 07:46:10;;;;;;;12.52;6.78;;;;;;;0.49;79.17;100494.41;5093495;28;20466;-55
2022/01/07 07:48:35;;;;;;;14.75;7.25;;;;;;;0.64;78.88;100499.91;5095408;28;20032;-55
2022/01/07 07:51:00;;;;;;;13.32;7.68;;;;;;;0.77;78.34;100500.13;5095118;28;20028;-55
2022/01/07 07:53:26;;;;;;;15.93;8.23;;;;;;;0.67;78.97;100502.50;5094859;28;20040;-56
2022/01/07 07:55:53;;;;;;;17.17;8.68;;;;;;;0.79;78.42;100496.72;5094842;28;20127;-56
2022/01/07 07:58:20;;;;;;;22.45;9.80;;;;;;;0.86;78.74;100500.31;5094671;28;20040;-58
2022/01/07 08:00:47;;;;;;;23.35;12.35;;;;;;;0.87;78.81;100494.28;5094045;28;20028;-53
2022/01/07 08:03:12;;;;;;;20.98;10.25;;;;;;;0.99;78.14;100492.78;5094023;28;20031;-55
2022/01/07 08:05:38;;;;;;;23.65;10.98;;;;;;;0.88;78.75;100498.63;5094835;28;20458;-56
2022/01/07 08:08:04;;;;;;;22.00;11.15;;;;;;;0.76;79.51;100499.28;5094704;28;20043;-55
2022/01/07 08:10:30;;;;;;;23.90;11.23;;;;;;;0.81;79.60;100499.34;5094616;28;20111;-55
2022/01/07 08:18:20;;;;;;;25.83;11.52;;;;;;;1.10;79.07;100511.13;5094733;28;20121;-56
2022/01/07 08:20:45;;;;;;;19.50;11.70;;;;;;;1.13;78.68;100500.84;5094208;28;20108;-56
2022/01/07 08:23:11;;;;;;;18.70;9.75;;;;;;;1.18;78.87;100504.38;5094343;28;20107;-54
2022/01/07 08:25:37;;;;;;;22.73;11.13;;;;;;;1.22;78.80;100513.06;5094227;28;20036;-56
2022/01/07 08:28:04;;;;;;;22.05;10.52;;;;;;;1.22;78.83;100501.00;5092870;28;20460;-55
2022/01/07 08:30:37;;;;;;;20.73;10.65;;;;;;;1.26;78.70;100504.50;5094226;28;20074;-55
2022/01/07 08:35:49;;;;;;;21.10;10.65;;;;;;;1.30;78.97;100495.09;5094455;28;20147;-55
2022/01/07 08:38:15;;;;;;;17.15;8.13;;;;;;;1.46;78.42;100505.72;5093948;28;20458;-56
2022/01/07 08:40:40;;;;;;;19.48;9.57;;;;;;;1.62;77.75;100501.69;5094227;28;20032;-57
2022/01/07 08:43:06;;;;;;;17.67;9.77;;;;;;;1.65;77.25;100496.56;5085362;28;20403;-56
2022/01/07 08:45:31;;;;;;;21.15;11.25;;;;;;;1.60;77.69;100498.22;5093408;28;20491;-56
2022/01/07 08:47:58;;;;;;;23.55;12.93;;;;;;;1.59;77.97;100492.97;5089050;28;20044;-56
2022/01/07 08:50:24;;;;;;;25.42;12.05;;;;;;;1.61;77.97;100496.50;5091367;28;20047;-56
2022/01/07 08:52:50;;;;;;;23.55;11.50;;;;;;;1.73;77.56;100494.97;5084795;28;20024;-57
2022/01/07 08:55:16;;;;;;;21.77;10.75;;;;;;;1.80;77.75;100508.03;5078073;28;20085;-56
2022/01/07 08:57:41;;;;;;;20.83;10.52;;;;;;;1.86;77.43;100508.09;5080058;28;20123;-55
2022/01/07 09:00:07;;;;;;;29.50;12.27;;;;;;;1.88;77.28;100509.88;5075625;28;20036;-56
2022/01/07 09:02:33;;;;;;;31.02;14.90;;;;;;;1.91;76.99;100496.09;5072924;28;20037;-53
2022/01/07 09:04:58;;;;;;;25.67;12.43;;;;;;;2.00;76.84;100497.97;5073246;28;20037;-54
2022/01/07 09:07:23;;;;;;;22.15;10.55;;;;;;;2.14;76.23;100496.44;5072901;28;20036;-56
2022/01/07 09:09:49;;;;;;;25.15;12.63;;;;;;;2.18;76.10;100496.50;5073417;28;20058;-55
2022/01/07 09:12:15;;;;;;;24.35;10.57;;;;;;;2.06;76.34;100493.72;5073628;28;20063;-56
2022/01/07 09:14:40;;;;;;;26.42;12.32;;;;;;;2.13;76.32;100495.56;5072123;28;20037;-55
2022/01/07 09:17:06;;;;;;;25.85;12.05;;;;;;;2.28;75.97;100494.06;5073380;28;20040;-55
2022/01/07 09:19:32;;;;;;;28.95;12.60;;;;;;;2.31;75.82;100488.88;5073285;28;20158;-55
2022/01/07 09:21:58;;;;;;;24.83;11.45;;;;;;;2.47;75.16;100486.53;5073142;28;20039;-54
2022/01/07 09:24:26;;;;;;;26.40;11.70;;;;;;;2.33;75.19;100489.78;5073454;28;20033;-56
2022/01/07 09:26:51;;;;;;;31.40;15.10;;;;;;;2.39;75.28;100492.44;5073405;28;20029;-55
2022/01/07 09:29:17;;;;;;;32.08;15.32;;;;;;;2.36;75.65;100492.44;5073190;28;20094;-55
2022/01/07 09:31:43;;;;;;;26.58;13.13;;;;;;;2.50;75.09;100490.88;5073515;28;20039;-54
2022/01/07 09:34:08;;;;;;;28.92;14.13;;;;;;;2.44;75.17;100485.63;5072502;28;20130;-57
2022/01/07 09:36:33;;;;;;;27.42;14.23;;;;;;;2.68;74.52;100475.53;5073141;28;20443;-55
2022/01/07 09:38:59;;;;;;;29.45;14.63;;;;;;;2.81;74.00;100473.09;5073655;28;20088;-55
2022/01/07 09:41:25;;;;;;;29.58;13.40;;;;;;;2.86;73.70;100468.81;5073585;28;20037;-56
2022/01/07 09:43:50;;;;;;;21.50;10.88;;;;;;;2.95;73.56;100466.31;5073035;28;20047;-55
2022/01/07 09:46:18;;;;;;;30.20;14.63;;;;;;;2.94;73.62;100465.44;5073197;28;20040;-57
2022/01/07 09:48:44;;;;;;;22.95;10.52;;;;;;;2.97;73.06;100472.41;5071670;28;20032;-55
2022/01/07 09:51:11;;;;;;;20.13;10.52;;;;;;;3.12;72.85;100471.69;5072971;28;20456;-56
2022/01/07 09:53:37;;;;;;;19.67;10.38;;;;;;;3.18;72.75;100466.56;5073076;28;20060;-55
2022/01/07 09:56:04;;;;;;;19.52;9.30;;;;;;;3.26;72.50;100471.81;5071670;28;20107;-56
2022/01/07 09:58:31;;;;;;;17.60;10.00;;;;;;;3.30;72.39;100468.41;5072836;28;20032;-56
2022/01/07 10:01:02;;;;;;;17.75;9.50;;;;;;;3.30;72.10;100469.25;5072859;28;20475;-55
2022/01/07 10:03:44;;;;;;;20.15;10.57;;;;;;;3.36;71.79;100465.88;5072654;28;20464;-55
2022/01/07 10:06:20;;;;;;;18.38;10.35;;;;;;;3.43;71.59;100470.22;5073086;28;20127;-56
2022/01/07 10:09:03;;;;;;;24.55;12.00;;;;;;;3.50;71.01;100468.56;5072227;28;20028;-56
2022/01/07 10:11:29;;;;;;;;;;;;;;;3.63;70.66;100476.50;5073518;28;20036;-55
2022/01/07 10:14:18;;;;;;;24.35;13.40;;;;;;;3.68;70.30;100464.41;5072469;28;20276;-55
2022/01/07 10:16:57;;;;;;;41.42;27.17;;;;;;;3.63;70.72;100463.50;5072470;28;20036;-55
2022/01/07 10:19:41;;;;;;;26.10;17.58;;;;;;;3.54;70.87;100466.00;5085777;28;20059;-54
2022/01/07 10:22:12;;;;;;;21.58;12.85;;;;;;;3.58;70.44;100467.78;5092686;28;20028;-55
2022/01/07 10:24:54;;;;;;;17.80;10.85;;;;;;;3.65;70.31;100471.31;5082569;28;20468;-55
2022/01/07 10:27:21;;;;;;;23.10;14.20;;;;;;;3.74;70.42;100463.56;5076399;28;20039;-53
2022/01/07 10:29:46;;;;;;;20.35;11.85;;;;;;;3.77;70.05;100457.53;5083807;28;20491;-52
2022/01/07 10:32:38;;;;;;;16.33;9.02;;;;;;;3.86;69.39;100455.84;5096510;28;20044;-54
2022/01/07 10:35:18;;;;;;;20.02;11.18;;;;;;;3.93;69.33;100455.03;5093372;28;20055;-55
2022/01/07 10:38:00;;;;;;;16.38;8.70;;;;;;;3.92;69.12;100452.44;5082236;28;20071;-54
2022/01/07 10:40:35;;;;;;;17.33;10.10;;;;;;;3.97;69.35;100444.66;5076517;28;20033;-53
2022/01/07 10:43:32;;;;;;;17.33;11.10;;;;;;;3.99;68.72;100449.03;5076000;28;20043;-54
2022/01/07 10:46:16;;;;;;;23.92;13.43;;;;;;;4.00;68.77;100440.34;5075542;28;20048;-58
2022/01/07 10:48:53;;;;;;;21.40;11.48;;;;;;;3.96;68.75;100433.41;5075781;28;20036;-58
2022/01/07 10:51:25;;;;;;;17.55;10.13;;;;;;;4.03;68.55;100430.00;5086168;28;20441;-56
2022/01/07 10:53:59;;;;;;;16.27;9.57;;;;;;;4.04;67.80;100430.84;5093033;28;20024;-56
2022/01/07 10:56:48;;;;;;;15.73;9.05;;;;;;;4.04;67.66;100429.13;5090518;28;20325;-57
2022/01/07 10:59:18;;;;;;;20.17;11.35;;;;;;;4.12;68.19;100430.03;5093115;28;20034;-56
2022/01/07 11:01:48;;;;;;;17.05;10.52;;;;;;;4.16;68.15;100420.50;5094470;28;20112;-57
2022/01/07 11:04:20;;;;;;;14.85;9.02;;;;;;;4.22;68.02;100419.66;5080588;28;20148;-55
2022/01/07 11:06:48;;;;;;;16.33;9.50;;;;;;;4.23;67.75;100413.59;5075564;28;20126;-57
2022/01/07 11:09:15;;;;;;;16.13;9.57;;;;;;;4.19;67.54;100424.00;5074202;28;20028;-56
2022/01/07 11:12:00;;;;;;;17.40;9.45;;;;;;;4.22;67.37;100419.66;5082738;28;20114;-56
2022/01/07 11:14:28;;;;;;;19.52;9.80;;;;;;;4.26;67.45;100413.63;5085124;28;20032;-57
2022/01/07 11:16:58;;;;;;;17.83;9.07;;;;;;;4.26;67.05;100406.66;5075619;28;20036;-55
2022/01/07 11:19:28;;;;;;;18.65;7.65;;;;;;;4.33;66.73;100412.78;5075489;28;20033;-56
2022/01/07 11:21:55;;;;;;;14.63;7.40;;;;;;;4.36;67.09;100403.25;5075333;28;20029;-55
2022/01/07 11:24:34;;;;;;;10.93;6.55;;;;;;;4.36;66.70;100403.25;5075368;28;20472;-56
2022/01/07 11:27:10;;;;;;;14.05;7.15;;;;;;;4.40;66.55;100399.81;5075214;28;20031;-57
2022/01/07 11:29:38;;;;;;;15.43;7.63;;;;;;;4.39;66.59;100395.47;5075392;28;20039;-58
2022/01/07 11:32:27;;;;;;;16.55;7.80;;;;;;;4.38;65.86;100395.44;5075119;28;20123;-57
2022/01/07 11:34:54;;;;;;;17.33;8.57;;;;;;;4.38;66.59;100393.72;5074952;28;20051;-57